createdAt,value
2019-03-29T10:38:57.623Z,24.4499
2019-03-29T10:39:28.310Z,24.1535
2019-03-29T10:40:23.607Z,24.3378
2019-03-29T10:53:39.947Z,24.7303
2019-03-29T10:54:10.683Z,24.5621
2019-03-29T10:54:41.708Z,24.5487
2019-03-29T10:55:12.683Z,24.5354
2019-03-29T10:55:43.697Z,24.5754
2019-03-29T10:56:14.681Z,24.6048
2019-03-29T10:56:45.721Z,24.6315
2019-03-29T10:57:16.715Z,24.6315
2019-03-29T10:57:47.703Z,24.6475
2019-03-29T10:58:18.698Z,24.6609
2019-03-29T10:58:58.942Z,24.6876
2019-03-29T10:59:31.756Z,24.7169
2019-03-29T11:00:04.730Z,24.7436
2019-03-29T11:00:37.761Z,24.7597
2019-03-29T11:01:10.734Z,24.7864
2019-03-29T11:01:55.598Z,24.9866
2019-03-29T11:02:11.281Z,24.8718
2019-03-29T11:02:27.292Z,24.9306
2019-03-29T11:02:43.269Z,24.9439
2019-03-29T11:02:59.285Z,24.9439
2019-03-29T11:03:15.320Z,24.9573
2019-03-29T11:03:31.323Z,24.9866
2019-03-29T11:03:47.250Z,25.0134
2019-03-29T11:04:03.293Z,25.0000
2019-03-29T11:04:19.252Z,25.1122
2019-03-29T11:04:35.294Z,26.1242
2019-03-29T11:04:51.271Z,26.1242
2019-03-29T11:05:07.274Z,25.4913
2019-03-29T11:17:22.140Z,25.5047
2019-03-29T11:17:37.871Z,25.2937
2019-03-29T11:17:53.867Z,25.3231
2019-03-29T11:18:09.872Z,25.3498
2019-03-29T11:20:44.255Z,25.2937
2019-03-29T12:32:31.878Z,24.7303
2019-03-29T12:32:47.619Z,24.5193
2019-03-29T12:33:03.623Z,24.5354
2019-03-29T12:33:19.618Z,24.5487
2019-03-29T12:33:35.646Z,24.5487
2019-03-29T12:33:51.622Z,24.5487
2019-03-29T12:34:07.630Z,24.5354
